sensor_id;sensor_type;location;lat;lon;timestamp;P1;durP1;ratioP1;P2;durP2;ratioP2
4698;SDS011;33708;49.466;11.176;2023-03-01T00:01:06;39.17;;;14.73;;
4698;SDS011;33708;49.466;11.176;2023-03-01T00:03:33;35.67;;;16.53;;
4698;SDS011;33708;49.466;11.176;2023-03-01T00:05:59;38.90;;;16.40;;
4698;SDS011;33708;49.466;11.176;2023-03-01T00:08:26;28.97;;;15.97;;
4698;SDS011;33708;49.466;11.176;2023-03-01T00:11:27;34.27;;;15.30;;
4698;SDS011;33708;49.466;11.176;2023-03-01T00:13:49;31.60;;;14.23;;
4698;SDS011;33708;49.466;11.176;2023-03-01T00:16:17;39.80;;;16.90;;
4698;SDS011;33708;49.466;11.176;2023-03-01T00:18:47;35.87;;;16.40;;
4698;SDS011;33708;49.466;11.176;2023-03-01T00:21:13;30.37;;;15.93;;
4698;SDS011;33708;49.466;11.176;2023-03-01T00:23:39;32.90;;;16.60;;
4698;SDS011;33708;49.466;11.176;2023-03-01T00:26:05;31.30;;;15.10;;
4698;SDS011;33708;49.466;11.176;2023-03-01T00:28:33;31.83;;;16.33;;
4698;SDS011;33708;49.466;11.176;2023-03-01T00:31:05;32.03;;;16.80;;
4698;SDS011;33708;49.466;11.176;2023-03-01T00:33:32;28.63;;;14.03;;
4698;SDS011;33708;49.466;11.176;2023-03-01T00:35:58;31.47;;;16.33;;
4698;SDS011;33708;49.466;11.176;2023-03-01T00:38:25;30.20;;;16.40;;
4698;SDS011;33708;49.466;11.176;2023-03-01T00:40:50;31.33;;;16.07;;
4698;SDS011;33708;49.466;11.176;2023-03-01T00:43:16;29.10;;;16.60;;
4698;SDS011;33708;49.466;11.176;2023-03-01T00:45:41;33.23;;;17.70;;
4698;SDS011;33708;49.466;11.176;2023-03-01T00:48:07;28.63;;;15.23;;
4698;SDS011;33708;49.466;11.176;2023-03-01T00:50:33;32.10;;;14.83;;
4698;SDS011;33708;49.466;11.176;2023-03-01T00:52:58;31.90;;;16.37;;
4698;SDS011;33708;49.466;11.176;2023-03-01T00:55:24;31.00;;;15.63;;
4698;SDS011;33708;49.466;11.176;2023-03-01T00:57:50;31.27;;;16.00;;
4698;SDS011;33708;49.466;11.176;2023-03-01T01:00:16;34.17;;;16.23;;
4698;SDS011;33708;49.466;11.176;2023-03-01T01:02:42;36.47;;;18.10;;
4698;SDS011;33708;49.466;11.176;2023-03-01T01:05:08;31.40;;;15.63;;
4698;SDS011;33708;49.466;11.176;2023-03-01T01:07:34;35.10;;;16.00;;
4698;SDS011;33708;49.466;11.176;2023-03-01T01:10:00;35.40;;;17.40;;
4698;SDS011;33708;49.466;11.176;2023-03-01T01:12:26;32.23;;;17.03;;
4698;SDS011;33708;49.466;11.176;2023-03-01T01:14:51;33.73;;;15.67;;
4698;SDS011;33708;49.466;11.176;2023-03-01T01:17:17;32.33;;;15.77;;
4698;SDS011;33708;49.466;11.176;2023-03-01T01:19:44;35.97;;;16.00;;
4698;SDS011;33708;49.466;11.176;2023-03-01T01:22:09;35.47;;;17.03;;
4698;SDS011;33708;49.466;11.176;2023-03-01T01:24:35;31.50;;;15.43;;
4698;SDS011;33708;49.466;11.176;2023-03-01T01:27:01;31.70;;;17.37;;
4698;SDS011;33708;49.466;11.176;2023-03-01T01:29:27;30.07;;;16.13;;
4698;SDS011;33708;49.466;11.176;2023-03-01T01:31:52;34.63;;;16.20;;
4698;SDS011;33708;49.466;11.176;2023-03-01T01:34:19;36.03;;;16.13;;
4698;SDS011;33708;49.466;11.176;2023-03-01T01:36:49;34.90;;;17.43;;
4698;SDS011;33708;49.466;11.176;2023-03-01T01:39:18;35.90;;;16.47;;
4698;SDS011;33708;49.466;11.176;2023-03-01T01:41:45;40.23;;;16.77;;
4698;SDS011;33708;49.466;11.176;2023-03-01T01:47:03;32.83;;;16.47;;
4698;SDS011;33708;49.466;11.176;2023-03-01T01:49:31;33.13;;;16.70;;
4698;SDS011;33708;49.466;11.176;2023-03-01T01:52:36;38.30;;;17.33;;
4698;SDS011;33708;49.466;11.176;2023-03-01T01:55:05;35.37;;;16.27;;
4698;SDS011;33708;49.466;11.176;2023-03-01T02:00:16;37.23;;;17.70;;
4698;SDS011;33708;49.466;11.176;2023-03-01T02:02:44;34.07;;;16.90;;
4698;SDS011;33708;49.466;11.176;2023-03-01T02:05:15;34.43;;;16.70;;
4698;SDS011;33708;49.466;11.176;2023-03-01T02:07:45;36.80;;;17.30;;
4698;SDS011;33708;49.466;11.176;2023-03-01T02:10:12;33.00;;;16.30;;
4698;SDS011;33708;49.466;11.176;2023-03-01T02:12:38;36.53;;;17.60;;
4698;SDS011;33708;49.466;11.176;2023-03-01T02:15:05;37.77;;;18.00;;
4698;SDS011;33708;49.466;11.176;2023-03-01T02:17:31;31.70;;;15.20;;
4698;SDS011;33708;49.466;11.176;2023-03-01T02:22:38;31.63;;;15.37;;
4698;SDS011;33708;49.466;11.176;2023-03-01T02:30:36;36.53;;;15.40;;
4698;SDS011;33708;49.466;11.176;2023-03-01T02:33:03;38.10;;;17.60;;
4698;SDS011;33708;49.466;11.176;2023-03-01T02:35:29;31.33;;;16.20;;
4698;SDS011;33708;49.466;11.176;2023-03-01T02:38:00;32.80;;;16.47;;
4698;SDS011;33708;49.466;11.176;2023-03-01T02:40:30;30.40;;;15.87;;
4698;SDS011;33708;49.466;11.176;2023-03-01T02:42:59;32.60;;;16.67;;
4698;SDS011;33708;49.466;11.176;2023-03-01T02:45:25;34.23;;;16.07;;
4698;SDS011;33708;49.466;11.176;2023-03-01T02:47:55;32.90;;;15.87;;
4698;SDS011;33708;49.466;11.176;2023-03-01T02:55:35;36.20;;;16.63;;
4698;SDS011;33708;49.466;11.176;2023-03-01T02:58:02;33.87;;;16.40;;
4698;SDS011;33708;49.466;11.176;2023-03-01T03:00:29;35.93;;;16.43;;
4698;SDS011;33708;49.466;11.176;2023-03-01T03:03:05;34.27;;;16.40;;
4698;SDS011;33708;49.466;11.176;2023-03-01T03:05:32;38.20;;;17.80;;
4698;SDS011;33708;49.466;11.176;2023-03-01T03:08:00;34.63;;;15.40;;
4698;SDS011;33708;49.466;11.176;2023-03-01T03:10:28;28.40;;;15.20;;
4698;SDS011;33708;49.466;11.176;2023-03-01T03:12:57;32.30;;;16.83;;
4698;SDS011;33708;49.466;11.176;2023-03-01T03:15:28;32.50;;;15.87;;
4698;SDS011;33708;49.466;11.176;2023-03-01T03:17:54;30.17;;;16.47;;
4698;SDS011;33708;49.466;11.176;2023-03-01T03:20:21;38.90;;;16.50;;
4698;SDS011;33708;49.466;11.176;2023-03-01T03:22:50;40.27;;;16.13;;
4698;SDS011;33708;49.466;11.176;2023-03-01T03:25:18;30.93;;;15.17;;
4698;SDS011;33708;49.466;11.176;2023-03-01T03:27:46;37.27;;;17.33;;
4698;SDS011;33708;49.466;11.176;2023-03-01T03:30:14;37.83;;;17.50;;
4698;SDS011;33708;49.466;11.176;2023-03-01T03:32:43;30.70;;;16.43;;
4698;SDS011;33708;49.466;11.176;2023-03-01T03:35:17;34.80;;;16.13;;
4698;SDS011;33708;49.466;11.176;2023-03-01T03:38:07;34.17;;;16.27;;
4698;SDS011;33708;49.466;11.176;2023-03-01T03:40:41;39.43;;;16.27;;
4698;SDS011;33708;49.466;11.176;2023-03-01T03:43:18;32.20;;;16.50;;
4698;SDS011;33708;49.466;11.176;2023-03-01T03:45:45;34.60;;;15.70;;
4698;SDS011;33708;49.466;11.176;2023-03-01T03:48:13;34.67;;;16.40;;
4698;SDS011;33708;49.466;11.176;2023-03-01T03:50:39;31.53;;;15.43;;
4698;SDS011;33708;49.466;11.176;2023-03-01T03:53:06;32.37;;;14.70;;
4698;SDS011;33708;49.466;11.176;2023-03-01T03:55:35;31.30;;;14.37;;
4698;SDS011;33708;49.466;11.176;2023-03-01T03:58:04;28.90;;;14.90;;
4698;SDS011;33708;49.466;11.176;2023-03-01T04:00:32;30.40;;;15.27;;
4698;SDS011;33708;49.466;11.176;2023-03-01T04:02:59;36.20;;;15.03;;
4698;SDS011;33708;49.466;11.176;2023-03-01T04:05:25;35.17;;;14.93;;
4698;SDS011;33708;49.466;11.176;2023-03-01T04:07:51;36.20;;;15.30;;
4698;SDS011;33708;49.466;11.176;2023-03-01T04:10:26;31.00;;;15.33;;
4698;SDS011;33708;49.466;11.176;2023-03-01T04:12:53;32.17;;;16.07;;
4698;SDS011;33708;49.466;11.176;2023-03-01T04:15:21;31.57;;;14.90;;
4698;SDS011;33708;49.466;11.176;2023-03-01T04:17:49;28.20;;;12.57;;
4698;SDS011;33708;49.466;11.176;2023-03-01T04:20:17;35.97;;;15.47;;
4698;SDS011;33708;49.466;11.176;2023-03-01T04:22:56;30.20;;;13.80;;
4698;SDS011;33708;49.466;11.176;2023-03-01T04:25:23;29.93;;;15.80;;
4698;SDS011;33708;49.466;11.176;2023-03-01T04:27:50;33.60;;;16.10;;
4698;SDS011;33708;49.466;11.176;2023-03-01T04:30:15;33.50;;;16.57;;
4698;SDS011;33708;49.466;11.176;2023-03-01T04:32:41;30.77;;;15.03;;
4698;SDS011;33708;49.466;11.176;2023-03-01T04:35:07;30.50;;;13.90;;
4698;SDS011;33708;49.466;11.176;2023-03-01T04:37:33;32.47;;;14.63;;
4698;SDS011;33708;49.466;11.176;2023-03-01T04:40:00;34.53;;;15.70;;
4698;SDS011;33708;49.466;11.176;2023-03-01T04:42:26;29.00;;;14.00;;
4698;SDS011;33708;49.466;11.176;2023-03-01T04:44:51;31.43;;;14.83;;
4698;SDS011;33708;49.466;11.176;2023-03-01T04:47:17;36.60;;;17.80;;
4698;SDS011;33708;49.466;11.176;2023-03-01T04:49:43;31.70;;;16.07;;
4698;SDS011;33708;49.466;11.176;2023-03-01T04:52:08;35.73;;;16.77;;
4698;SDS011;33708;49.466;11.176;2023-03-01T04:54:34;40.23;;;17.50;;
4698;SDS011;33708;49.466;11.176;2023-03-01T04:57:01;30.70;;;15.70;;
4698;SDS011;33708;49.466;11.176;2023-03-01T04:59:28;34.50;;;16.30;;
4698;SDS011;33708;49.466;11.176;2023-03-01T05:01:54;32.87;;;17.43;;
4698;SDS011;33708;49.466;11.176;2023-03-01T05:04:21;31.20;;;15.57;;
4698;SDS011;33708;49.466;11.176;2023-03-01T05:06:47;41.70;;;18.10;;
4698;SDS011;33708;49.466;11.176;2023-03-01T05:09:13;36.60;;;16.00;;
4698;SDS011;33708;49.466;11.176;2023-03-01T05:11:39;34.30;;;16.40;;
4698;SDS011;33708;49.466;11.176;2023-03-01T05:14:05;32.43;;;15.20;;
4698;SDS011;33708;49.466;11.176;2023-03-01T05:16:32;31.67;;;13.40;;
4698;SDS011;33708;49.466;11.176;2023-03-01T05:18:58;34.80;;;14.83;;
4698;SDS011;33708;49.466;11.176;2023-03-01T05:21:24;27.00;;;13.00;;
4698;SDS011;33708;49.466;11.176;2023-03-01T05:23:50;31.80;;;14.33;;
4698;SDS011;33708;49.466;11.176;2023-03-01T05:26:16;25.83;;;13.20;;
4698;SDS011;33708;49.466;11.176;2023-03-01T05:28:44;27.73;;;13.73;;
4698;SDS011;33708;49.466;11.176;2023-03-01T05:31:10;29.93;;;13.80;;
4698;SDS011;33708;49.466;11.176;2023-03-01T05:33:39;30.83;;;14.00;;
4698;SDS011;33708;49.466;11.176;2023-03-01T05:36:08;29.37;;;14.00;;
4698;SDS011;33708;49.466;11.176;2023-03-01T05:38:35;25.30;;;13.23;;
4698;SDS011;33708;49.466;11.176;2023-03-01T05:41:01;31.83;;;13.90;;
4698;SDS011;33708;49.466;11.176;2023-03-01T05:43:29;27.73;;;13.20;;
4698;SDS011;33708;49.466;11.176;2023-03-01T05:45:57;27.67;;;13.60;;
4698;SDS011;33708;49.466;11.176;2023-03-01T05:48:22;30.57;;;13.97;;
4698;SDS011;33708;49.466;11.176;2023-03-01T05:50:48;28.50;;;13.33;;
4698;SDS011;33708;49.466;11.176;2023-03-01T05:53:17;26.70;;;13.37;;
4698;SDS011;33708;49.466;11.176;2023-03-01T05:55:46;33.33;;;13.63;;
4698;SDS011;33708;49.466;11.176;2023-03-01T05:58:18;29.07;;;14.03;;
4698;SDS011;33708;49.466;11.176;2023-03-01T06:00:45;27.80;;;14.10;;
4698;SDS011;33708;49.466;11.176;2023-03-01T06:03:13;28.93;;;14.90;;
4698;SDS011;33708;49.466;11.176;2023-03-01T06:05:40;29.50;;;14.77;;
4698;SDS011;33708;49.466;11.176;2023-03-01T06:08:06;35.10;;;15.60;;
4698;SDS011;33708;49.466;11.176;2023-03-01T06:10:31;30.87;;;14.40;;
4698;SDS011;33708;49.466;11.176;2023-03-01T06:12:57;36.93;;;16.40;;
4698;SDS011;33708;49.466;11.176;2023-03-01T06:15:24;32.60;;;16.20;;
4698;SDS011;33708;49.466;11.176;2023-03-01T06:17:49;35.57;;;15.20;;
4698;SDS011;33708;49.466;11.176;2023-03-01T06:20:17;29.97;;;15.33;;
4698;SDS011;33708;49.466;11.176;2023-03-01T06:22:44;32.40;;;15.60;;
4698;SDS011;33708;49.466;11.176;2023-03-01T06:25:12;30.07;;;14.50;;
4698;SDS011;33708;49.466;11.176;2023-03-01T06:27:39;37.00;;;15.07;;
4698;SDS011;33708;49.466;11.176;2023-03-01T06:30:05;26.60;;;13.77;;
4698;SDS011;33708;49.466;11.176;2023-03-01T06:32:32;33.13;;;15.60;;
4698;SDS011;33708;49.466;11.176;2023-03-01T06:34:58;29.27;;;15.00;;
4698;SDS011;33708;49.466;11.176;2023-03-01T06:37:27;33.53;;;17.33;;
4698;SDS011;33708;49.466;11.176;2023-03-01T06:39:53;35.53;;;18.67;;
4698;SDS011;33708;49.466;11.176;2023-03-01T06:42:18;31.07;;;16.53;;
4698;SDS011;33708;49.466;11.176;2023-03-01T06:44:44;33.50;;;17.07;;
4698;SDS011;33708;49.466;11.176;2023-03-01T06:47:10;28.30;;;14.70;;
4698;SDS011;33708;49.466;11.176;2023-03-01T06:49:36;31.03;;;16.90;;
4698;SDS011;33708;49.466;11.176;2023-03-01T06:52:02;33.47;;;18.30;;
4698;SDS011;33708;49.466;11.176;2023-03-01T06:54:27;34.00;;;20.50;;
4698;SDS011;33708;49.466;11.176;2023-03-01T06:56:53;37.00;;;19.13;;
4698;SDS011;33708;49.466;11.176;2023-03-01T06:59:19;38.10;;;18.37;;
4698;SDS011;33708;49.466;11.176;2023-03-01T07:01:44;32.73;;;18.40;;
4698;SDS011;33708;49.466;11.176;2023-03-01T07:04:10;33.97;;;19.20;;
4698;SDS011;33708;49.466;11.176;2023-03-01T07:06:37;33.33;;;19.17;;
4698;SDS011;33708;49.466;11.176;2023-03-01T07:09:03;37.43;;;20.37;;
4698;SDS011;33708;49.466;11.176;2023-03-01T07:11:28;38.13;;;20.70;;
4698;SDS011;33708;49.466;11.176;2023-03-01T07:13:54;38.27;;;21.20;;
4698;SDS011;33708;49.466;11.176;2023-03-01T07:16:20;40.30;;;22.53;;
4698;SDS011;33708;49.466;11.176;2023-03-01T07:18:46;38.73;;;21.13;;
4698;SDS011;33708;49.466;11.176;2023-03-01T07:21:13;46.33;;;21.50;;
4698;SDS011;33708;49.466;11.176;2023-03-01T07:23:40;36.70;;;20.23;;
4698;SDS011;33708;49.466;11.176;2023-03-01T07:26:06;39.87;;;22.57;;
4698;SDS011;33708;49.466;11.176;2023-03-01T07:28:32;38.33;;;21.23;;
4698;SDS011;33708;49.466;11.176;2023-03-01T07:31:03;37.63;;;20.93;;
4698;SDS011;33708;49.466;11.176;2023-03-01T07:33:29;36.97;;;23.10;;
4698;SDS011;33708;49.466;11.176;2023-03-01T07:35:55;37.23;;;21.40;;
4698;SDS011;33708;49.466;11.176;2023-03-01T07:38:23;40.50;;;20.33;;
4698;SDS011;33708;49.466;11.176;2023-03-01T07:40:48;45.73;;;21.13;;
4698;SDS011;33708;49.466;11.176;2023-03-01T07:43:14;35.20;;;20.93;;
4698;SDS011;33708;49.466;11.176;2023-03-01T07:45:40;30.47;;;19.83;;
4698;SDS011;33708;49.466;11.176;2023-03-01T07:48:05;35.03;;;20.97;;
4698;SDS011;33708;49.466;11.176;2023-03-01T07:50:31;30.87;;;20.00;;
4698;SDS011;33708;49.466;11.176;2023-03-01T07:52:57;33.20;;;20.30;;
4698;SDS011;33708;49.466;11.176;2023-03-01T07:55:22;32.60;;;20.50;;
4698;SDS011;33708;49.466;11.176;2023-03-01T07:57:48;34.80;;;20.13;;
4698;SDS011;33708;49.466;11.176;2023-03-01T08:00:13;46.40;;;23.80;;
4698;SDS011;33708;49.466;11.176;2023-03-01T08:02:39;43.03;;;22.47;;
4698;SDS011;33708;49.466;11.176;2023-03-01T08:05:06;40.97;;;23.47;;
4698;SDS011;33708;49.466;11.176;2023-03-01T08:07:33;44.23;;;22.67;;
4698;SDS011;33708;49.466;11.176;2023-03-01T08:09:59;36.03;;;21.47;;
4698;SDS011;33708;49.466;11.176;2023-03-01T08:12:25;34.30;;;21.57;;
4698;SDS011;33708;49.466;11.176;2023-03-01T08:14:52;34.80;;;21.83;;
4698;SDS011;33708;49.466;11.176;2023-03-01T08:17:18;33.97;;;21.07;;
4698;SDS011;33708;49.466;11.176;2023-03-01T08:19:44;31.00;;;21.20;;
4698;SDS011;33708;49.466;11.176;2023-03-01T08:22:10;32.37;;;21.90;;
4698;SDS011;33708;49.466;11.176;2023-03-01T08:24:35;33.53;;;22.10;;
4698;SDS011;33708;49.466;11.176;2023-03-01T08:27:01;31.93;;;21.00;;
4698;SDS011;33708;49.466;11.176;2023-03-01T08:29:27;33.80;;;21.47;;
4698;SDS011;33708;49.466;11.176;2023-03-01T08:31:55;33.03;;;20.00;;
4698;SDS011;33708;49.466;11.176;2023-03-01T08:34:20;34.47;;;21.73;;
4698;SDS011;33708;49.466;11.176;2023-03-01T08:36:46;34.83;;;20.20;;
4698;SDS011;33708;49.466;11.176;2023-03-01T08:39:13;32.97;;;20.77;;
4698;SDS011;33708;49.466;11.176;2023-03-01T08:41:40;39.43;;;21.90;;
4698;SDS011;33708;49.466;11.176;2023-03-01T08:44:06;32.10;;;20.27;;
4698;SDS011;33708;49.466;11.176;2023-03-01T08:46:36;32.63;;;20.77;;
4698;SDS011;33708;49.466;11.176;2023-03-01T08:49:06;33.97;;;21.90;;
4698;SDS011;33708;49.466;11.176;2023-03-01T08:51:37;33.27;;;21.30;;
4698;SDS011;33708;49.466;11.176;2023-03-01T08:54:04;32.87;;;20.43;;
4698;SDS011;33708;49.466;11.176;2023-03-01T08:56:30;39.53;;;21.10;;
4698;SDS011;33708;49.466;11.176;2023-03-01T08:58:56;33.83;;;19.90;;
4698;SDS011;33708;49.466;11.176;2023-03-01T09:01:21;32.20;;;20.23;;
4698;SDS011;33708;49.466;11.176;2023-03-01T09:03:47;39.60;;;21.57;;
4698;SDS011;33708;49.466;11.176;2023-03-01T09:06:13;35.60;;;23.10;;
4698;SDS011;33708;49.466;11.176;2023-03-01T09:08:44;34.50;;;20.03;;
4698;SDS011;33708;49.466;11.176;2023-03-01T09:11:13;32.83;;;20.50;;
4698;SDS011;33708;49.466;11.176;2023-03-01T09:13:41;33.37;;;21.03;;
4698;SDS011;33708;49.466;11.176;2023-03-01T09:16:07;33.43;;;21.47;;
4698;SDS011;33708;49.466;11.176;2023-03-01T09:18:34;31.40;;;19.30;;
4698;SDS011;33708;49.466;11.176;2023-03-01T09:21:07;28.87;;;19.37;;
4698;SDS011;33708;49.466;11.176;2023-03-01T09:23:39;32.20;;;19.23;;
4698;SDS011;33708;49.466;11.176;2023-03-01T09:26:10;33.60;;;21.37;;
4698;SDS011;33708;49.466;11.176;2023-03-01T09:28:47;39.30;;;23.13;;
4698;SDS011;33708;49.466;11.176;2023-03-01T09:31:14;38.53;;;19.93;;
4698;SDS011;33708;49.466;11.176;2023-03-01T09:33:41;32.80;;;20.97;;
4698;SDS011;33708;49.466;11.176;2023-03-01T09:36:10;33.30;;;21.33;;
4698;SDS011;33708;49.466;11.176;2023-03-01T09:38:38;29.87;;;18.47;;
4698;SDS011;33708;49.466;11.176;2023-03-01T09:41:09;34.70;;;20.30;;
4698;SDS011;33708;49.466;11.176;2023-03-01T09:46:40;38.57;;;20.93;;
4698;SDS011;33708;49.466;11.176;2023-03-01T09:49:18;34.20;;;19.67;;
4698;SDS011;33708;49.466;11.176;2023-03-01T09:51:56;36.93;;;21.40;;
4698;SDS011;33708;49.466;11.176;2023-03-01T09:54:37;36.60;;;20.50;;
4698;SDS011;33708;49.466;11.176;2023-03-01T09:57:07;36.70;;;21.60;;
4698;SDS011;33708;49.466;11.176;2023-03-01T09:59:52;36.40;;;22.33;;
4698;SDS011;33708;49.466;11.176;2023-03-01T10:02:33;34.77;;;21.03;;
4698;SDS011;33708;49.466;11.176;2023-03-01T10:10:43;41.00;;;22.67;;
4698;SDS011;33708;49.466;11.176;2023-03-01T10:13:15;37.17;;;22.03;;
4698;SDS011;33708;49.466;11.176;2023-03-01T10:15:49;37.40;;;21.40;;
4698;SDS011;33708;49.466;11.176;2023-03-01T10:18:20;36.77;;;20.47;;
4698;SDS011;33708;49.466;11.176;2023-03-01T10:20:56;34.53;;;20.17;;
4698;SDS011;33708;49.466;11.176;2023-03-01T10:23:29;36.67;;;21.23;;
4698;SDS011;33708;49.466;11.176;2023-03-01T10:31:40;42.00;;;22.00;;
4698;SDS011;33708;49.466;11.176;2023-03-01T10:34:16;41.30;;;20.60;;
4698;SDS011;33708;49.466;11.176;2023-03-01T10:36:44;39.73;;;20.83;;
4698;SDS011;33708;49.466;11.176;2023-03-01T10:39:17;42.63;;;21.20;;
4698;SDS011;33708;49.466;11.176;2023-03-01T10:42:13;53.57;;;24.43;;
4698;SDS011;33708;49.466;11.176;2023-03-01T10:44:44;42.77;;;20.90;;
4698;SDS011;33708;49.466;11.176;2023-03-01T10:50:04;38.63;;;20.93;;
4698;SDS011;33708;49.466;11.176;2023-03-01T10:52:42;39.03;;;21.80;;
4698;SDS011;33708;49.466;11.176;2023-03-01T10:55:31;35.47;;;19.70;;
4698;SDS011;33708;49.466;11.176;2023-03-01T11:03:29;34.30;;;19.67;;
4698;SDS011;33708;49.466;11.176;2023-03-01T11:08:44;34.63;;;18.43;;
4698;SDS011;33708;49.466;11.176;2023-03-01T11:13:54;31.13;;;17.80;;
4698;SDS011;33708;49.466;11.176;2023-03-01T11:18:59;33.60;;;17.83;;
4698;SDS011;33708;49.466;11.176;2023-03-01T11:21:29;30.90;;;18.97;;
4698;SDS011;33708;49.466;11.176;2023-03-01T11:23:59;35.33;;;19.47;;
4698;SDS011;33708;49.466;11.176;2023-03-01T11:26:27;33.43;;;19.23;;
4698;SDS011;33708;49.466;11.176;2023-03-01T11:28:55;34.17;;;18.40;;
4698;SDS011;33708;49.466;11.176;2023-03-01T11:31:25;34.57;;;17.47;;
4698;SDS011;33708;49.466;11.176;2023-03-01T11:33:55;39.30;;;19.20;;
4698;SDS011;33708;49.466;11.176;2023-03-01T11:38:56;35.00;;;18.63;;
4698;SDS011;33708;49.466;11.176;2023-03-01T11:41:28;34.83;;;18.53;;
4698;SDS011;33708;49.466;11.176;2023-03-01T11:44:05;35.70;;;19.47;;
4698;SDS011;33708;49.466;11.176;2023-03-01T11:51:51;29.43;;;16.97;;
4698;SDS011;33708;49.466;11.176;2023-03-01T11:57:11;31.57;;;17.43;;
4698;SDS011;33708;49.466;11.176;2023-03-01T12:11:39;30.70;;;17.10;;
4698;SDS011;33708;49.466;11.176;2023-03-01T12:17:26;34.77;;;18.03;;
4698;SDS011;33708;49.466;11.176;2023-03-01T12:23:38;33.30;;;17.63;;
4698;SDS011;33708;49.466;11.176;2023-03-01T12:31:33;27.77;;;15.33;;
4698;SDS011;33708;49.466;11.176;2023-03-01T12:43:17;30.33;;;16.97;;
4698;SDS011;33708;49.466;11.176;2023-03-01T12:49:05;33.07;;;16.53;;
4698;SDS011;33708;49.466;11.176;2023-03-01T12:51:38;25.87;;;15.33;;
4698;SDS011;33708;49.466;11.176;2023-03-01T12:54:12;25.63;;;15.13;;
4698;SDS011;33708;49.466;11.176;2023-03-01T12:56:41;28.40;;;15.97;;
4698;SDS011;33708;49.466;11.176;2023-03-01T13:04:52;28.60;;;16.30;;
4698;SDS011;33708;49.466;11.176;2023-03-01T13:10:24;27.30;;;15.40;;
4698;SDS011;33708;49.466;11.176;2023-03-01T13:21:04;31.80;;;16.43;;
4698;SDS011;33708;49.466;11.176;2023-03-01T13:25:42;30.10;;;15.83;;
4698;SDS011;33708;49.466;11.176;2023-03-01T13:28:46;28.10;;;15.50;;
4698;SDS011;33708;49.466;11.176;2023-03-01T13:39:26;32.20;;;15.27;;
4698;SDS011;33708;49.466;11.176;2023-03-01T13:42:03;34.10;;;15.70;;
4698;SDS011;33708;49.466;11.176;2023-03-01T13:44:49;26.70;;;14.67;;
4698;SDS011;33708;49.466;11.176;2023-03-01T13:47:16;29.70;;;16.53;;
4698;SDS011;33708;49.466;11.176;2023-03-01T13:49:46;35.40;;;17.40;;
4698;SDS011;33708;49.466;11.176;2023-03-01T13:52:37;29.33;;;14.40;;
4698;SDS011;33708;49.466;11.176;2023-03-01T13:55:01;29.70;;;15.60;;
4698;SDS011;33708;49.466;11.176;2023-03-01T13:57:35;28.13;;;14.17;;
4698;SDS011;33708;49.466;11.176;2023-03-01T14:00:04;28.90;;;15.43;;
4698;SDS011;33708;49.466;11.176;2023-03-01T14:02:31;27.87;;;15.10;;
4698;SDS011;33708;49.466;11.176;2023-03-01T14:04:59;29.13;;;14.13;;
4698;SDS011;33708;49.466;11.176;2023-03-01T14:07:26;28.30;;;14.80;;
4698;SDS011;33708;49.466;11.176;2023-03-01T14:10:00;27.93;;;15.63;;
4698;SDS011;33708;49.466;11.176;2023-03-01T14:12:35;28.00;;;15.77;;
4698;SDS011;33708;49.466;11.176;2023-03-01T14:15:30;28.40;;;16.23;;
4698;SDS011;33708;49.466;11.176;2023-03-01T14:20:40;28.20;;;16.77;;
4698;SDS011;33708;49.466;11.176;2023-03-01T14:23:11;29.63;;;17.80;;
4698;SDS011;33708;49.466;11.176;2023-03-01T14:25:51;29.80;;;16.83;;
4698;SDS011;33708;49.466;11.176;2023-03-01T14:28:21;26.63;;;15.60;;
4698;SDS011;33708;49.466;11.176;2023-03-01T14:30:59;32.90;;;15.50;;
4698;SDS011;33708;49.466;11.176;2023-03-01T14:43:42;29.57;;;15.27;;
4698;SDS011;33708;49.466;11.176;2023-03-01T14:46:44;29.83;;;16.57;;
4698;SDS011;33708;49.466;11.176;2023-03-01T14:51:36;29.27;;;14.37;;
4698;SDS011;33708;49.466;11.176;2023-03-01T14:54:04;31.57;;;16.50;;
4698;SDS011;33708;49.466;11.176;2023-03-01T14:56:44;29.50;;;16.33;;
4698;SDS011;33708;49.466;11.176;2023-03-01T14:59:11;32.73;;;16.23;;
4698;SDS011;33708;49.466;11.176;2023-03-01T15:01:37;26.87;;;13.67;;
4698;SDS011;33708;49.466;11.176;2023-03-01T15:04:03;26.77;;;15.97;;
4698;SDS011;33708;49.466;11.176;2023-03-01T15:06:30;28.33;;;15.60;;
4698;SDS011;33708;49.466;11.176;2023-03-01T15:08:56;28.63;;;16.17;;
4698;SDS011;33708;49.466;11.176;2023-03-01T15:11:24;28.73;;;16.80;;
4698;SDS011;33708;49.466;11.176;2023-03-01T15:13:54;32.20;;;15.27;;
4698;SDS011;33708;49.466;11.176;2023-03-01T15:16:23;28.53;;;15.90;;
4698;SDS011;33708;49.466;11.176;2023-03-01T15:18:56;29.00;;;16.60;;
4698;SDS011;33708;49.466;11.176;2023-03-01T15:21:26;25.80;;;15.03;;
4698;SDS011;33708;49.466;11.176;2023-03-01T15:23:55;26.80;;;16.13;;
4698;SDS011;33708;49.466;11.176;2023-03-01T15:26:45;26.10;;;14.47;;
4698;SDS011;33708;49.466;11.176;2023-03-01T15:29:19;32.80;;;14.27;;
4698;SDS011;33708;49.466;11.176;2023-03-01T15:34:51;29.60;;;12.80;;
4698;SDS011;33708;49.466;11.176;2023-03-01T15:37:37;27.47;;;15.50;;
4698;SDS011;33708;49.466;11.176;2023-03-01T15:40:23;26.03;;;15.13;;
4698;SDS011;33708;49.466;11.176;2023-03-01T15:42:56;29.57;;;15.30;;
4698;SDS011;33708;49.466;11.176;2023-03-01T15:45:27;24.73;;;14.43;;
4698;SDS011;33708;49.466;11.176;2023-03-01T15:47:58;29.20;;;14.87;;
4698;SDS011;33708;49.466;11.176;2023-03-01T15:50:32;34.40;;;14.83;;
4698;SDS011;33708;49.466;11.176;2023-03-01T15:53:00;30.43;;;15.87;;
4698;SDS011;33708;49.466;11.176;2023-03-01T15:55:30;38.57;;;18.67;;
4698;SDS011;33708;49.466;11.176;2023-03-01T15:58:03;31.83;;;17.97;;
4698;SDS011;33708;49.466;11.176;2023-03-01T16:00:38;26.60;;;14.97;;
4698;SDS011;33708;49.466;11.176;2023-03-01T16:03:04;31.93;;;15.07;;
4698;SDS011;33708;49.466;11.176;2023-03-01T16:05:31;25.37;;;13.40;;
4698;SDS011;33708;49.466;11.176;2023-03-01T16:07:59;27.97;;;16.07;;
4698;SDS011;33708;49.466;11.176;2023-03-01T16:10:25;36.13;;;15.37;;
4698;SDS011;33708;49.466;11.176;2023-03-01T16:12:52;31.10;;;15.73;;
4698;SDS011;33708;49.466;11.176;2023-03-01T16:15:25;30.27;;;16.40;;
4698;SDS011;33708;49.466;11.176;2023-03-01T16:17:55;27.57;;;15.00;;
4698;SDS011;33708;49.466;11.176;2023-03-01T16:20:23;28.80;;;15.40;;
4698;SDS011;33708;49.466;11.176;2023-03-01T16:22:49;31.70;;;16.20;;
4698;SDS011;33708;49.466;11.176;2023-03-01T16:25:16;32.27;;;15.80;;
4698;SDS011;33708;49.466;11.176;2023-03-01T16:27:47;33.97;;;16.30;;
4698;SDS011;33708;49.466;11.176;2023-03-01T16:30:14;29.63;;;15.83;;
4698;SDS011;33708;49.466;11.176;2023-03-01T16:32:43;42.30;;;16.60;;
4698;SDS011;33708;49.466;11.176;2023-03-01T16:35:11;27.20;;;15.30;;
4698;SDS011;33708;49.466;11.176;2023-03-01T16:37:38;33.00;;;15.50;;
4698;SDS011;33708;49.466;11.176;2023-03-01T16:40:04;39.97;;;19.30;;
4698;SDS011;33708;49.466;11.176;2023-03-01T16:42:35;42.03;;;20.33;;
4698;SDS011;33708;49.466;11.176;2023-03-01T16:45:01;46.13;;;23.70;;
4698;SDS011;33708;49.466;11.176;2023-03-01T16:47:28;45.47;;;23.13;;
4698;SDS011;33708;49.466;11.176;2023-03-01T16:49:54;44.27;;;17.23;;
4698;SDS011;33708;49.466;11.176;2023-03-01T16:52:20;28.47;;;15.57;;
4698;SDS011;33708;49.466;11.176;2023-03-01T16:54:46;29.20;;;16.10;;